Terminal Aerodrome Forecast
Issued by NWS

Home | Current Version | Previous Version | Text Only | Print | Product List | Glossary On
Versions: 1 2 3 4 5 6 7 8 9 10 11 12 13
000
FTUS45 KRIW 191120
TAFCOD
TAF
KCOD 191120Z 1912/2012 24011KT P6SM BKN120 WS005/25035KT
     FM192200 25010G15KT P6SM VCSH BKN050
     FM200300 VRB05KT 5SM -SN SCT015 BKN030
      AMD LTD TO CLD VIS AND WIND=

USA.gov is the U.S. government's official web portal to all federal, state and local government web resources and services.